Time;durP1;ratioP1;P1;durP2;ratioP2;P2;SDS_P1;SDS_P2;PMS_P1;PMS_P2;Temp;Humidity;BMP_temperature;BMP_pressure;BME280_temperature;BME280_humidity;BME280_pressure;Samples;Min_cycle;Max_cycle;Signal;HPM_P1;HPM_P2
2023/05/20 00:00:08;;;;;;;0.10;0.10;;;10.00;99.90;;;;;;5071182;28;20446;-86
2023/05/20 00:02:34;;;;;;;0.10;0.10;;;9.80;99.90;;;;;;5071761;28;20494;-86
2023/05/20 00:04:59;;;;;;;0.10;0.10;;;9.90;99.90;;;;;;5071780;28;20440;-86
2023/05/20 00:07:25;;;;;;;0.10;0.10;;;9.80;99.90;;;;;;5068547;28;20676;-86
2023/05/20 00:09:51;;;;;;;0.10;0.10;;;9.90;99.90;;;;;;5064328;28;20193;-86
2023/05/20 00:12:16;;;;;;;0.10;0.10;;;9.90;99.90;;;;;;5065011;28;20186;-86
2023/05/20 00:14:42;;;;;;;0.10;0.10;;;9.90;99.90;;;;;;5070033;28;20644;-86
2023/05/20 00:17:07;;;;;;;0.10;0.10;;;9.90;99.90;;;;;;5069075;28;20563;-85
2023/05/20 00:19:33;;;;;;;0.10;0.10;;;9.80;99.90;;;;;;5068544;28;20290;-86
2023/05/20 00:21:58;;;;;;;0.10;0.10;;;9.80;99.90;;;;;;5066749;28;20214;-86
2023/05/20 00:24:24;;;;;;;0.10;0.10;;;9.80;99.90;;;;;;5066629;28;20190;-86
2023/05/20 00:26:50;;;;;;;0.10;0.10;;;9.80;99.90;;;;;;5051131;28;20179;-86
2023/05/20 00:29:15;;;;;;;0.10;0.10;;;9.80;99.90;;;;;;5067922;28;20197;-86
2023/05/20 00:31:41;;;;;;;0.10;0.10;;;9.80;99.90;;;;;;5066999;28;20228;-86
2023/05/20 00:34:07;;;;;;;0.13;0.13;;;9.70;99.90;;;;;;5068473;28;20272;-86
2023/05/20 00:36:33;;;;;;;0.10;0.10;;;9.70;99.90;;;;;;5068796;28;20193;-86
2023/05/20 00:38:59;;;;;;;0.10;0.10;;;9.70;99.90;;;;;;5068471;28;20535;-86
2023/05/20 00:41:25;;;;;;;0.10;0.10;;;9.70;99.90;;;;;;5067787;28;20923;-85
2023/05/20 00:43:53;;;;;;;0.10;0.10;;;9.70;99.90;;;;;;5066900;28;20213;-86
2023/05/20 00:46:19;;;;;;;0.10;0.10;;;9.70;99.90;;;;;;5067853;28;20178;-86
2023/05/20 00:48:45;;;;;;;0.13;0.13;;;9.60;99.90;;;;;;5068825;28;20424;-86
2023/05/20 00:51:13;;;;;;;0.10;0.10;;;9.70;99.90;;;;;;5068590;28;20444;-86
2023/05/20 00:53:39;;;;;;;0.10;0.10;;;9.70;99.90;;;;;;5066568;28;20186;-86
2023/05/20 00:56:05;;;;;;;0.10;0.10;;;9.60;99.90;;;;;;5068322;28;20444;-86
2023/05/20 00:58:31;;;;;;;0.10;0.10;;;9.60;99.90;;;;;;5072988;28;20499;-86
2023/05/20 01:00:57;;;;;;;0.13;0.13;;;9.50;99.90;;;;;;5072028;28;20440;-86
2023/05/20 01:03:22;;;;;;;0.10;0.10;;;9.50;99.90;;;;;;5054909;28;20764;-86
2023/05/20 01:05:48;;;;;;;0.20;0.20;;;9.60;99.90;;;;;;5057356;28;20188;-85
2023/05/20 01:08:14;;;;;;;0.10;0.10;;;9.50;99.90;;;;;;5072925;28;20194;-86
2023/05/20 01:10:45;;;;;;;0.10;0.10;;;9.50;99.90;;;;;;5070867;28;20269;-86
2023/05/20 01:13:16;;;;;;;0.10;0.10;;;9.50;99.90;;;;;;5069568;28;20198;-86
2023/05/20 01:15:44;;;;;;;0.10;0.10;;;9.60;99.90;;;;;;5069418;28;20479;-86
2023/05/20 01:18:10;;;;;;;0.17;0.17;;;9.50;99.90;;;;;;5052620;28;20433;-85
2023/05/20 01:20:36;;;;;;;0.13;0.13;;;9.40;99.90;;;;;;5058199;28;20959;-86
2023/05/20 01:23:03;;;;;;;0.20;0.20;;;9.40;99.90;;;;;;5072727;28;20475;-85
2023/05/20 01:25:28;;;;;;;0.10;0.10;;;9.30;99.90;;;;;;5071266;28;20525;-85
2023/05/20 01:27:59;;;;;;;0.10;0.10;;;9.40;99.90;;;;;;5068475;28;20840;-86
2023/05/20 01:30:29;;;;;;;0.10;0.10;;;9.40;99.90;;;;;;5069906;28;20186;-85
2023/05/20 01:33:01;;;;;;;0.10;0.10;;;9.50;99.90;;;;;;5071493;28;20845;-86
2023/05/20 01:35:28;;;;;;;0.10;0.10;;;9.50;99.90;;;;;;5070332;28;20834;-86
2023/05/20 01:37:56;;;;;;;0.10;0.10;;;9.50;99.90;;;;;;5058005;28;20436;-85
2023/05/20 01:40:23;;;;;;;0.10;0.10;;;9.50;99.90;;;;;;5068557;28;20440;-86
2023/05/20 01:42:51;;;;;;;0.10;0.10;;;9.50;99.90;;;;;;5070781;28;20533;-85
2023/05/20 01:45:18;;;;;;;0.10;0.10;;;9.40;99.90;;;;;;5070063;28;20448;-85
2023/05/20 01:47:46;;;;;;;0.10;0.10;;;9.40;99.90;;;;;;5071899;28;20473;-85
2023/05/20 01:50:12;;;;;;;0.10;0.10;;;9.50;99.90;;;;;;5070509;28;20448;-85
2023/05/20 01:52:37;;;;;;;0.10;0.10;;;9.30;99.90;;;;;;5070438;28;20424;-85
2023/05/20 01:55:03;;;;;;;0.10;0.10;;;9.30;99.90;;;;;;5070806;28;20189;-85
2023/05/20 01:57:28;;;;;;;0.10;0.10;;;9.30;99.90;;;;;;5071214;28;20190;-86
2023/05/20 01:59:54;;;;;;;0.13;0.13;;;9.30;99.90;;;;;;5068392;28;20527;-85
2023/05/20 02:02:19;;;;;;;0.10;0.10;;;9.30;99.90;;;;;;5069388;28;20241;-85
2023/05/20 02:04:47;;;;;;;0.10;0.10;;;9.30;99.90;;;;;;5066029;28;20191;-85
2023/05/20 02:07:13;;;;;;;0.10;0.10;;;9.20;99.90;;;;;;5060536;28;20181;-85
2023/05/20 02:09:39;;;;;;;0.13;0.13;;;9.20;99.90;;;;;;5070697;28;20517;-84
2023/05/20 02:12:06;;;;;;;0.10;0.10;;;9.20;99.90;;;;;;5069478;28;20546;-85
2023/05/20 02:14:31;;;;;;;0.13;0.13;;;9.20;99.90;;;;;;5069995;28;20178;-85
2023/05/20 02:16:57;;;;;;;0.10;0.10;;;9.10;99.90;;;;;;5069333;28;20884;-85
2023/05/20 02:19:22;;;;;;;0.10;0.10;;;9.10;99.90;;;;;;5069093;28;20204;-85
2023/05/20 02:21:49;;;;;;;0.10;0.10;;;9.10;99.90;;;;;;5066053;28;20206;-84
2023/05/20 02:24:15;;;;;;;0.20;0.20;;;9.10;99.90;;;;;;5071517;28;20181;-84
2023/05/20 02:26:40;;;;;;;0.10;0.10;;;9.10;99.90;;;;;;5069419;28;20435;-84
2023/05/20 02:29:06;;;;;;;0.13;0.13;;;9.10;99.90;;;;;;5064912;28;20194;-84
2023/05/20 02:31:32;;;;;;;0.10;0.10;;;9.10;99.90;;;;;;5059416;28;20182;-84
2023/05/20 02:33:57;;;;;;;0.10;0.10;;;8.90;99.90;;;;;;5065859;28;20219;-84
2023/05/20 02:36:23;;;;;;;0.20;0.20;;;8.80;99.90;;;;;;5069845;28;20573;-84
2023/05/20 02:38:48;;;;;;;0.10;0.10;;;8.80;99.90;;;;;;5069503;28;20270;-84
2023/05/20 02:41:14;;;;;;;0.17;0.17;;;8.70;99.90;;;;;;5069109;28;20185;-85
2023/05/20 02:43:40;;;;;;;0.10;0.10;;;8.60;99.90;;;;;;5068977;28;20305;-85
2023/05/20 02:46:05;;;;;;;0.20;0.20;;;8.70;99.90;;;;;;5069233;28;20482;-85
2023/05/20 02:48:31;;;;;;;0.20;0.20;;;8.70;99.90;;;;;;5067087;28;20182;-86
2023/05/20 02:50:58;;;;;;;0.10;0.10;;;8.70;99.90;;;;;;5069937;28;20711;-85
2023/05/20 02:53:24;;;;;;;0.10;0.10;;;8.80;99.90;;;;;;5069591;28;20222;-84
2023/05/20 02:55:50;;;;;;;0.10;0.10;;;8.80;99.90;;;;;;5070998;28;20412;-84
2023/05/20 02:58:16;;;;;;;0.10;0.10;;;8.80;99.90;;;;;;5069695;28;20440;-85
2023/05/20 03:00:42;;;;;;;0.10;0.10;;;8.80;99.90;;;;;;5068967;28;20178;-85
2023/05/20 03:03:08;;;;;;;0.10;0.10;;;8.80;99.90;;;;;;5069959;28;20217;-84
2023/05/20 03:05:38;;;;;;;0.10;0.10;;;8.80;99.90;;;;;;5072484;28;20449;-85
2023/05/20 03:08:08;;;;;;;0.20;0.20;;;8.90;99.90;;;;;;5069542;28;20452;-85
2023/05/20 03:10:36;;;;;;;0.17;0.17;;;8.90;99.90;;;;;;5068257;28;20875;-85
2023/05/20 03:13:01;;;;;;;0.17;0.17;;;9.00;99.90;;;;;;5068289;28;20448;-83
2023/05/20 03:15:27;;;;;;;0.10;0.10;;;9.00;99.90;;;;;;5068384;28;20429;-85
2023/05/20 03:17:52;;;;;;;0.20;0.20;;;9.00;99.90;;;;;;5070713;28;20708;-84
2023/05/20 03:20:19;;;;;;;0.10;0.10;;;9.10;99.90;;;;;;5065902;28;20226;-85
2023/05/20 03:22:44;;;;;;;0.10;0.10;;;9.00;99.90;;;;;;5068441;28;20233;-85
2023/05/20 03:25:10;;;;;;;0.10;0.10;;;9.10;99.90;;;;;;5069337;28;20529;-85
2023/05/20 03:27:36;;;;;;;0.13;0.13;;;9.20;99.90;;;;;;5069923;28;20182;-85
2023/05/20 03:30:03;;;;;;;0.10;0.10;;;9.10;99.90;;;;;;5068476;28;20642;-84
2023/05/20 03:32:29;;;;;;;0.20;0.20;;;9.10;99.90;;;;;;5069844;28;20440;-84
2023/05/20 03:34:56;;;;;;;0.10;0.10;;;9.20;99.90;;;;;;5067083;28;20495;-85
2023/05/20 03:37:22;;;;;;;0.20;0.20;;;9.40;99.90;;;;;;5060563;28;20221;-85
2023/05/20 03:39:47;;;;;;;0.10;0.10;;;9.30;99.90;;;;;;5069199;28;20486;-85
2023/05/20 03:42:13;;;;;;;0.10;0.10;;;9.30;99.90;;;;;;5067984;28;20214;-85
2023/05/20 03:44:38;;;;;;;0.10;0.10;;;9.40;99.90;;;;;;5070261;28;20201;-87
2023/05/20 03:47:04;;;;;;;0.10;0.10;;;9.50;99.90;;;;;;5067567;28;20185;-86
2023/05/20 03:49:30;;;;;;;0.07;0.07;;;9.60;99.90;;;;;;5069529;28;20202;-86
2023/05/20 03:51:55;;;;;;;0.10;0.10;;;9.60;99.90;;;;;;5068666;28;20460;-86
2023/05/20 03:54:21;;;;;;;0.10;0.10;;;9.60;99.90;;;;;;5068815;28;20178;-86
2023/05/20 03:56:48;;;;;;;0.10;0.10;;;9.80;99.90;;;;;;5068591;28;20649;-87
2023/05/20 03:59:13;;;;;;;0.17;0.17;;;9.80;99.90;;;;;;5068192;28;20182;-87
2023/05/20 04:01:39;;;;;;;0.10;0.10;;;9.80;99.90;;;;;;5065318;28;20474;-90
2023/05/20 04:04:04;;;;;;;0.10;0.10;;;9.80;99.90;;;;;;5085141;28;20210;-87
2023/05/20 04:06:30;;;;;;;0.10;0.10;;;9.80;99.90;;;;;;5069213;28;20628;-86
2023/05/20 04:08:56;;;;;;;0.10;0.10;;;9.90;99.90;;;;;;5068552;28;20205;-86
2023/05/20 04:11:21;;;;;;;0.10;0.10;;;9.90;99.90;;;;;;5069641;28;20162;-86
2023/05/20 04:13:47;;;;;;;0.10;0.10;;;9.90;99.90;;;;;;5068374;28;20186;-86
2023/05/20 04:16:13;;;;;;;0.10;0.10;;;9.90;99.90;;;;;;5069637;28;20189;-86
2023/05/20 04:18:39;;;;;;;0.10;0.10;;;10.00;99.90;;;;;;5068864;28;20182;-87
2023/05/20 04:21:05;;;;;;;0.10;0.10;;;10.00;99.90;;;;;;5068845;28;20582;-88
2023/05/20 04:23:30;;;;;;;0.10;0.10;;;10.00;99.90;;;;;;5067784;28;20594;-87
2023/05/20 04:26:01;;;;;;;0.10;0.10;;;10.00;99.90;;;;;;5069027;28;20245;-85
2023/05/20 04:28:30;;;;;;;0.10;0.10;;;10.10;99.90;;;;;;5066957;28;20186;-87
2023/05/20 04:31:03;;;;;;;0.10;0.10;;;10.00;99.90;;;;;;5067692;28;20803;-87
2023/05/20 04:33:29;;;;;;;0.10;0.10;;;10.00;99.90;;;;;;5069801;28;20523;-86
2023/05/20 04:35:57;;;;;;;0.10;0.10;;;10.00;99.90;;;;;;5073736;28;20440;-87
2023/05/20 04:38:28;;;;;;;0.10;0.10;;;10.00;99.90;;;;;;5072175;28;20822;-87
2023/05/20 04:40:57;;;;;;;0.10;0.10;;;10.10;99.90;;;;;;5053889;28;20432;-87
2023/05/20 04:43:23;;;;;;;0.10;0.10;;;10.00;99.90;;;;;;5070692;28;20502;-87
2023/05/20 04:45:49;;;;;;;0.10;0.10;;;10.00;99.90;;;;;;5073181;28;20416;-86
2023/05/20 04:48:15;;;;;;;0.10;0.10;;;10.10;99.90;;;;;;5071675;28;20436;-85
2023/05/20 04:50:40;;;;;;;0.10;0.10;;;10.10;99.90;;;;;;5070789;28;20189;-86
2023/05/20 04:53:06;;;;;;;0.10;0.10;;;10.10;99.90;;;;;;5061230;28;20225;-86
2023/05/20 04:55:32;;;;;;;0.00;0.00;;;10.20;99.90;;;;;;5072144;28;20310;-87
2023/05/20 04:57:57;;;;;;;0.10;0.10;;;10.30;99.90;;;;;;5073622;28;20504;-86
2023/05/20 05:00:23;;;;;;;0.10;0.10;;;10.30;99.90;;;;;;5070460;28;20544;-86
2023/05/20 05:02:49;;;;;;;0.10;0.10;;;10.40;99.90;;;;;;5069577;28;20213;-87
2023/05/20 05:05:15;;;;;;;0.10;0.10;;;10.40;99.90;;;;;;5071973;28;20439;-88
2023/05/20 05:07:40;;;;;;;0.10;0.10;;;10.40;99.90;;;;;;5071637;28;20190;-87
2023/05/20 05:10:06;;;;;;;0.10;0.10;;;10.50;99.90;;;;;;5069914;28;20185;-89
2023/05/20 05:12:32;;;;;;;0.10;0.10;;;10.50;99.90;;;;;;5070552;28;20190;-86
2023/05/20 05:14:58;;;;;;;0.17;0.17;;;10.50;99.90;;;;;;5071762;28;20448;-87
2023/05/20 05:17:24;;;;;;;0.10;0.10;;;10.50;99.90;;;;;;5072199;28;20190;-86
2023/05/20 05:19:49;;;;;;;0.10;0.10;;;10.50;99.90;;;;;;5072010;28;20229;-85
2023/05/20 05:22:15;;;;;;;0.10;0.10;;;10.50;99.90;;;;;;5072135;28;20471;-87
2023/05/20 05:24:40;;;;;;;0.10;0.10;;;10.60;99.90;;;;;;5070046;28;20189;-86
2023/05/20 05:27:06;;;;;;;0.10;0.10;;;10.70;99.90;;;;;;5068718;28;20190;-86
2023/05/20 05:29:31;;;;;;;0.10;0.10;;;10.70;99.90;;;;;;5070598;28;20192;-86
2023/05/20 05:31:57;;;;;;;0.10;0.10;;;10.80;99.90;;;;;;5068263;28;20280;-84
2023/05/20 05:34:22;;;;;;;0.10;0.10;;;10.80;99.90;;;;;;5068391;28;20205;-83
2023/05/20 05:36:48;;;;;;;0.10;0.10;;;10.90;99.90;;;;;;5077809;28;20205;-85
2023/05/20 05:39:13;;;;;;;0.10;0.10;;;11.00;99.90;;;;;;5068350;28;20194;-85
2023/05/20 05:41:39;;;;;;;0.10;0.10;;;11.00;99.90;;;;;;5070699;28;20182;-85
2023/05/20 05:44:04;;;;;;;0.07;0.07;;;11.10;99.90;;;;;;5068418;28;20214;-86
2023/05/20 05:46:31;;;;;;;0.10;0.10;;;11.20;99.90;;;;;;5070402;28;20188;-85
2023/05/20 05:48:57;;;;;;;0.10;0.10;;;11.40;99.90;;;;;;5071999;28;20929;-86
2023/05/20 05:51:24;;;;;;;0.07;0.07;;;11.50;99.90;;;;;;5068869;28;20494;-84
2023/05/20 05:53:49;;;;;;;0.03;0.03;;;11.70;99.90;;;;;;5070169;28;20860;-83
2023/05/20 05:56:15;;;;;;;0.10;0.10;;;11.80;99.90;;;;;;5069697;28;20448;-85
2023/05/20 05:58:41;;;;;;;0.10;0.10;;;12.00;99.90;;;;;;5071453;28;20288;-86
2023/05/20 06:01:06;;;;;;;0.10;0.10;;;12.20;99.90;;;;;;5071668;28;20213;-87
2023/05/20 06:03:32;;;;;;;0.10;0.10;;;12.20;99.90;;;;;;5079229;28;20236;-90
2023/05/20 06:05:57;;;;;;;0.07;0.07;;;12.30;99.90;;;;;;5068957;28;20264;-88
2023/05/20 06:08:23;;;;;;;0.10;0.10;;;12.30;99.90;;;;;;5070060;28;20217;-85
2023/05/20 06:10:49;;;;;;;0.10;0.10;;;12.50;99.90;;;;;;5076886;28;20186;-87
2023/05/20 06:13:14;;;;;;;0.10;0.10;;;12.50;99.90;;;;;;5068626;28;20577;-86
2023/05/20 06:15:40;;;;;;;0.10;0.10;;;12.60;99.90;;;;;;5068431;28;20178;-88
2023/05/20 06:18:06;;;;;;;0.10;0.10;;;12.70;99.90;;;;;;5069911;28;20193;-90
2023/05/20 06:20:31;;;;;;;0.10;0.10;;;12.80;99.90;;;;;;5076306;28;20279;-86
2023/05/20 06:22:57;;;;;;;0.10;0.10;;;12.80;99.90;;;;;;5063594;28;20221;-86
2023/05/20 06:25:22;;;;;;;0.10;0.10;;;12.90;99.90;;;;;;5082913;28;20192;-89
2023/05/20 06:27:48;;;;;;;0.10;0.10;;;12.90;99.90;;;;;;5069198;28;20193;-88
2023/05/20 06:30:14;;;;;;;0.10;0.10;;;12.90;99.90;;;;;;5066201;28;20675;-89
2023/05/20 06:32:40;;;;;;;0.10;0.10;;;13.00;99.90;;;;;;5069608;28;20488;-90
2023/05/20 06:35:06;;;;;;;0.10;0.10;;;13.10;99.90;;;;;;5070417;28;20185;-87
2023/05/20 06:37:31;;;;;;;0.10;0.10;;;13.20;99.90;;;;;;5069974;28;20181;-87
2023/05/20 06:39:57;;;;;;;0.07;0.07;;;13.10;99.90;;;;;;5066861;28;20186;-89
2023/05/20 06:42:22;;;;;;;0.07;0.07;;;13.20;99.90;;;;;;5059625;28;20214;-88
2023/05/20 06:44:48;;;;;;;0.00;0.00;;;13.20;99.90;;;;;;5065844;28;20194;-89
2023/05/20 06:47:15;;;;;;;0.00;0.00;;;13.40;99.90;;;;;;5067054;28;20193;-88
2023/05/20 06:49:42;;;;;;;0.10;0.10;;;13.40;99.90;;;;;;5061861;28;20181;-88
2023/05/20 06:52:07;;;;;;;0.00;0.00;;;13.40;99.90;;;;;;5070301;28;20440;-89
2023/05/20 06:54:38;;;;;;;0.10;0.10;;;13.50;99.90;;;;;;5068502;28;20451;-88
2023/05/20 06:57:04;;;;;;;0.00;0.00;;;13.60;99.90;;;;;;5064543;28;20205;-88
2023/05/20 06:59:30;;;;;;;0.00;0.00;;;13.90;99.90;;;;;;5077499;28;20483;-88
2023/05/20 07:01:55;;;;;;;0.00;0.00;;;14.00;99.90;;;;;;5065552;28;20697;-88
2023/05/20 07:04:21;;;;;;;0.00;0.00;;;14.10;99.90;;;;;;5058764;28;20190;-87
2023/05/20 07:06:46;;;;;;;0.00;0.00;;;14.00;99.90;;;;;;5066605;28;20194;-90
2023/05/20 07:09:12;;;;;;;0.00;0.00;;;14.00;99.90;;;;;;5068502;28;20236;-88
2023/05/20 07:11:38;;;;;;;0.03;0.03;;;14.00;99.90;;;;;;5073203;28;20220;-89
2023/05/20 07:14:04;;;;;;;0.10;0.10;;;14.10;99.90;;;;;;5074483;28;20186;-88
2023/05/20 07:16:31;;;;;;;0.07;0.07;;;14.10;99.90;;;;;;5067176;28;20639;-88
2023/05/20 07:18:56;;;;;;;0.07;0.07;;;14.20;99.90;;;;;;5064998;28;20445;-89
2023/05/20 07:21:22;;;;;;;0.00;0.00;;;14.30;99.90;;;;;;5066087;28;20482;-88
2023/05/20 07:23:47;;;;;;;0.00;0.00;;;14.40;99.90;;;;;;5067713;28;20221;-90
2023/05/20 07:26:14;;;;;;;0.00;0.00;;;14.50;99.90;;;;;;5069089;28;20234;-89
2023/05/20 07:28:39;;;;;;;0.00;0.00;;;14.60;99.90;;;;;;5066277;28;22541;-90
2023/05/20 07:31:05;;;;;;;0.00;0.00;;;14.70;99.90;;;;;;5077468;28;20192;-89
2023/05/20 07:33:30;;;;;;;0.00;0.00;;;14.70;99.90;;;;;;5069014;28;20250;-89
2023/05/20 07:35:57;;;;;;;0.00;0.00;;;14.80;99.90;;;;;;5063971;28;20272;-90
2023/05/20 07:38:22;;;;;;;0.00;0.00;;;14.90;99.90;;;;;;5079456;28;20524;-90
2023/05/20 07:40:48;;;;;;;0.00;0.00;;;15.00;99.90;;;;;;5062625;28;20224;-89
2023/05/20 07:43:13;;;;;;;0.00;0.00;;;15.00;99.90;;;;;;5068011;28;20260;-88
2023/05/20 07:45:39;;;;;;;0.00;0.00;;;15.20;99.90;;;;;;5061778;28;20239;-90
2023/05/20 07:48:07;;;;;;;0.00;0.00;;;15.00;99.90;;;;;;5067677;28;20193;-90
2023/05/20 07:50:33;;;;;;;0.00;0.00;;;15.30;99.90;;;;;;5068586;28;20448;-90
2023/05/20 07:52:58;;;;;;;0.00;0.00;;;15.40;99.90;;;;;;5068929;28;20444;-90
2023/05/20 07:55:24;;;;;;;0.00;0.00;;;15.40;99.90;;;;;;5069565;28;20217;-89
2023/05/20 07:57:49;;;;;;;0.00;0.00;;;15.40;99.90;;;;;;5065121;28;20181;-89
2023/05/20 08:00:15;;;;;;;0.00;0.00;;;15.30;99.90;;;;;;5070039;28;20662;-88
2023/05/20 08:02:40;;;;;;;0.00;0.00;;;15.30;99.90;;;;;;5067151;28;20248;-88
2023/05/20 08:05:07;;;;;;;0.00;0.00;;;15.60;99.90;;;;;;5068166;28;20723;-89
2023/05/20 08:07:33;;;;;;;0.00;0.00;;;15.50;99.90;;;;;;5069296;28;20185;-88
2023/05/20 08:09:59;;;;;;;0.00;0.00;;;15.50;99.90;;;;;;5072977;28;20440;-85
2023/05/20 08:12:25;;;;;;;0.00;0.00;;;15.50;99.90;;;;;;5071597;28;20223;-88
2023/05/20 08:14:50;;;;;;;0.00;0.00;;;15.80;99.90;;;;;;5072884;28;20814;-87
2023/05/20 08:17:16;;;;;;;0.00;0.00;;;16.00;99.90;;;;;;5079749;28;20189;-85
2023/05/20 08:19:41;;;;;;;0.00;0.00;;;16.40;99.90;;;;;;5070555;28;20656;-88
2023/05/20 08:22:07;;;;;;;0.00;0.00;;;16.10;99.90;;;;;;5071907;28;20190;-89
2023/05/20 08:24:33;;;;;;;0.00;0.00;;;16.30;99.90;;;;;;5071915;28;20308;-86
2023/05/20 08:26:58;;;;;;;0.00;0.00;;;16.30;99.90;;;;;;5085419;28;20811;-87
2023/05/20 08:29:24;;;;;;;0.00;0.00;;;16.50;99.90;;;;;;5066786;28;20193;-87
2023/05/20 08:31:51;;;;;;;0.00;0.00;;;16.40;99.90;;;;;;5077323;28;20186;-88
2023/05/20 08:34:16;;;;;;;0.00;0.00;;;16.40;99.90;;;;;;5068875;28;20664;-86
2023/05/20 08:36:44;;;;;;;0.00;0.00;;;16.50;99.90;;;;;;5069148;28;20452;-85
2023/05/20 08:39:09;;;;;;;0.00;0.00;;;16.40;99.90;;;;;;5068665;28;20194;-87
2023/05/20 08:41:37;;;;;;;0.00;0.00;;;16.70;99.90;;;;;;5071520;28;21264;-87
2023/05/20 08:44:04;;;;;;;0.00;0.00;;;16.40;99.90;;;;;;5071201;28;20660;-90
2023/05/20 08:46:32;;;;;;;0.00;0.00;;;16.50;99.90;;;;;;5073456;28;20473;-85
2023/05/20 08:48:58;;;;;;;0.00;0.00;;;16.60;99.90;;;;;;5075994;28;20448;-88
2023/05/20 08:51:25;;;;;;;0.00;0.00;;;16.70;99.90;;;;;;5079922;28;20934;-86
2023/05/20 08:53:51;;;;;;;0.00;0.00;;;17.00;99.90;;;;;;5079866;28;20197;-85
2023/05/20 08:56:17;;;;;;;0.00;0.00;;;17.20;99.90;;;;;;5069895;28;20821;-81
2023/05/20 08:58:43;;;;;;;0.00;0.00;;;17.00;99.90;;;;;;5071586;28;20559;-85
2023/05/20 09:01:08;;;;;;;0.00;0.00;;;17.20;99.90;;;;;;5071658;28;20185;-87
2023/05/20 09:03:34;;;;;;;0.00;0.00;;;17.40;99.90;;;;;;5075927;28;20570;-90
2023/05/20 09:06:07;;;;;;;0.00;0.00;;;17.00;99.90;;;;;;5069542;28;20544;-87
2023/05/20 09:08:33;;;;;;;0.00;0.00;;;17.10;99.90;;;;;;5070226;28;20272;-84
2023/05/20 09:10:59;;;;;;;0.00;0.00;;;17.00;99.90;;;;;;5065057;28;20452;-84
2023/05/20 09:13:26;;;;;;;0.00;0.00;;;17.40;99.90;;;;;;5067683;28;20776;-84
2023/05/20 09:15:52;;;;;;;0.00;0.00;;;17.30;99.90;;;;;;5071658;28;20436;-84
2023/05/20 09:18:17;;;;;;;0.00;0.00;;;17.20;99.90;;;;;;5069184;28;20451;-84
2023/05/20 09:20:46;;;;;;;0.00;0.00;;;17.60;99.90;;;;;;5070614;28;20229;-84
2023/05/20 09:23:12;;;;;;;0.00;0.00;;;18.20;99.90;;;;;;5076973;28;20614;-85
2023/05/20 09:25:38;;;;;;;0.00;0.00;;;18.30;99.90;;;;;;5070262;28;20561;-85
2023/05/20 09:28:06;;;;;;;0.00;0.00;;;18.40;99.90;;;;;;5064774;28;20209;-85
2023/05/20 09:30:32;;;;;;;0.00;0.00;;;18.40;99.90;;;;;;5070329;28;20174;-85
2023/05/20 09:32:59;;;;;;;0.00;0.00;;;18.70;99.90;;;;;;5069621;28;20444;-85
2023/05/20 09:35:26;;;;;;;0.00;0.00;;;18.00;99.90;;;;;;5069056;28;21210;-84
2023/05/20 09:37:54;;;;;;;0.00;0.00;;;18.00;99.90;;;;;;5069552;28;20451;-84
2023/05/20 09:40:25;;;;;;;0.00;0.00;;;17.70;99.90;;;;;;5064762;28;20495;-85
2023/05/20 09:43:01;;;;;;;0.00;0.00;;;18.30;99.90;;;;;;5069075;28;20501;-85
2023/05/20 09:45:26;;;;;;;0.00;0.00;;;18.60;99.90;;;;;;5076812;28;20448;-84
2023/05/20 09:47:53;;;;;;;0.00;0.00;;;18.60;99.90;;;;;;5070943;28;20501;-85
2023/05/20 09:50:20;;;;;;;0.00;0.00;;;18.60;99.90;;;;;;5089506;28;20177;-85
2023/05/20 09:52:48;;;;;;;0.00;0.00;;;18.70;99.90;;;;;;5064073;28;20947;-87
2023/05/20 09:55:15;;;;;;;0.00;0.00;;;18.70;99.90;;;;;;5064946;28;20467;-85
2023/05/20 09:57:41;;;;;;;0.00;0.00;;;18.40;99.90;;;;;;5065793;28;21166;-86
2023/05/20 10:00:12;;;;;;;0.00;0.00;;;18.20;99.90;;;;;;5069781;28;20483;-85
2023/05/20 10:02:39;;;;;;;0.00;0.00;;;18.30;99.90;;;;;;5066918;28;20267;-84
2023/05/20 10:05:10;;;;;;;0.00;0.00;;;18.50;99.90;;;;;;5087518;28;20592;-84
2023/05/20 10:08:04;;;;;;;0.00;0.00;;;18.30;99.90;;;;;;5060620;28;20444;-85
2023/05/20 10:10:38;;;;;;;0.00;0.00;;;18.60;99.90;;;;;;5068606;28;20792;-86
2023/05/20 10:13:10;;;;;;;0.00;0.00;;;18.60;99.90;;;;;;5069159;28;20439;-85
2023/05/20 10:16:14;;;;;;;0.00;0.00;;;18.50;99.90;;;;;;5068754;28;20448;-83
2023/05/20 10:19:07;;;;;;;0.00;0.00;;;18.10;99.90;;;;;;5078088;28;20447;-88
2023/05/20 10:21:33;;;;;;;0.00;0.00;;;17.50;99.90;;;;;;5095828;28;20482;-88
2023/05/20 10:24:09;;;;;;;0.00;0.00;;;17.50;99.90;;;;;;5070792;28;20480;-90
2023/05/20 10:26:36;;;;;;;0.00;0.00;;;17.50;99.90;;;;;;5070055;28;20189;-90
2023/05/20 10:29:12;;;;;;;0.00;0.00;;;17.00;99.90;;;;;;5071717;28;20479;-86
2023/05/20 10:31:44;;;;;;;0.00;0.00;;;16.90;99.90;;;;;;5071337;28;20530;-89
2023/05/20 10:34:15;;;;;;;0.00;0.00;;;17.20;99.90;;;;;;5063157;28;20460;-91
2023/05/20 10:36:45;;;;;;;0.00;0.00;;;17.50;99.90;;;;;;5060105;28;20467;-90
2023/05/20 10:39:16;;;;;;;0.00;0.00;;;17.70;99.90;;;;;;5069699;28;20448;-90
2023/05/20 10:41:41;;;;;;;0.00;0.00;;;17.90;99.90;;;;;;5082576;28;20447;-91
2023/05/20 10:44:07;;;;;;;0.00;0.00;;;18.10;99.90;;;;;;5077566;28;20509;-91
2023/05/20 10:46:33;;;;;;;0.00;0.00;;;17.90;99.90;;;;;;5068450;28;20186;-88
2023/05/20 10:49:01;;;;;;;0.00;0.00;;;18.00;99.90;;;;;;5070866;28;20182;-89
2023/05/20 10:51:28;;;;;;;0.00;0.00;;;17.90;99.90;;;;;;5070235;28;20527;-92
2023/05/20 10:53:54;;;;;;;0.00;0.00;;;17.70;99.90;;;;;;5069827;28;20445;-92
2023/05/20 10:56:22;;;;;;;0.00;0.00;;;18.10;99.90;;;;;;5069569;28;20448;-90
2023/05/20 10:58:49;;;;;;;0.00;0.00;;;17.80;99.90;;;;;;5069910;28;20420;-90
2023/05/20 11:01:15;;;;;;;0.00;0.00;;;18.00;99.90;;;;;;5068893;28;20467;-93
2023/05/20 11:03:43;;;;;;;0.00;0.00;;;17.90;99.90;;;;;;5071538;28;20567;-95
2023/05/20 11:06:16;;;;;;;0.00;0.00;;;17.90;99.90;;;;;;5071753;28;20535;-94
2023/05/20 11:08:41;;;;;;;0.00;0.00;;;18.70;99.90;;;;;;5069559;28;20533;-91
2023/05/20 11:11:07;;;;;;;0.00;0.00;;;18.90;99.90;;;;;;5071289;28;20439;-91
2023/05/20 11:13:33;;;;;;;0.00;0.00;;;19.00;99.90;;;;;;5069846;28;20269;-90
2023/05/20 11:16:00;;;;;;;0.00;0.00;;;18.50;99.90;;;;;;5070670;28;20618;-92
2023/05/20 11:18:30;;;;;;;0.00;0.00;;;18.20;99.90;;;;;;5068208;28;20194;-91
2023/05/20 11:20:59;;;;;;;0.00;0.00;;;18.20;99.90;;;;;;5085043;28;20536;-93
2023/05/20 11:23:26;;;;;;;0.00;0.00;;;18.00;99.90;;;;;;5069813;28;20483;-92
2023/05/20 11:25:54;;;;;;;0.00;0.00;;;17.80;99.90;;;;;;5068951;28;20447;-96
2023/05/20 11:28:22;;;;;;;0.00;0.00;;;17.90;99.90;;;;;;5079013;28;20452;-89
2023/05/20 11:30:49;;;;;;;0.00;0.00;;;17.60;99.90;;;;;;5072689;28;20421;-95
2023/05/20 11:33:16;;;;;;;0.00;0.00;;;17.60;99.90;;;;;;5074368;28;20444;-95
2023/05/20 11:35:46;;;;;;;0.00;0.00;;;17.90;99.90;;;;;;5072373;28;20521;-91
2023/05/20 11:38:12;;;;;;;0.00;0.00;;;18.80;99.90;;;;;;5065915;28;20444;-93
2023/05/20 11:40:45;;;;;;;0.00;0.00;;;19.20;99.90;;;;;;5076248;28;20954;-96
2023/05/20 11:43:14;;;;;;;0.00;0.00;;;19.50;99.90;;;;;;5079274;28;20214;-96
2023/05/20 11:45:44;;;;;;;0.00;0.00;;;19.80;99.90;;;;;;5072488;28;20440;-95
2023/05/20 11:48:16;;;;;;;0.00;0.00;;;20.70;99.90;;;;;;5061002;28;20528;-96
2023/05/20 11:50:44;;;;;;;0.00;0.00;;;20.70;99.90;;;;;;5120086;22;20527;-96
2023/05/20 11:53:13;;;;;;;0.00;0.00;;;19.90;99.90;;;;;;5067223;28;20489;-96
2023/05/20 11:55:46;;;;;;;0.00;0.00;;;19.60;99.90;;;;;;5060783;28;20443;-96
2023/05/20 11:58:15;;;;;;;0.00;0.00;;;20.00;99.90;;;;;;5070866;28;20424;-93
2023/05/20 12:00:41;;;;;;;0.00;0.00;;;20.00;99.90;;;;;;5072070;28;20428;-93
2023/05/20 12:03:06;;;;;;;0.00;0.00;;;20.10;99.90;;;;;;5063582;28;20472;-91
2023/05/20 12:05:32;;;;;;;0.00;0.00;;;20.10;99.90;;;;;;5069262;28;20206;-90
2023/05/20 12:07:57;;;;;;;0.00;0.00;;;20.90;99.90;;;;;;5067379;28;20190;-89
2023/05/20 12:10:23;;;;;;;0.00;0.00;;;20.90;99.90;;;;;;5072210;28;20250;-90
2023/05/20 12:12:48;;;;;;;0.00;0.00;;;21.20;99.90;;;;;;5069164;28;20185;-92
2023/05/20 12:15:14;;;;;;;0.00;0.00;;;21.10;99.90;;;;;;5065936;28;20179;-89
2023/05/20 12:17:46;;;;;;;0.00;0.00;;;20.70;99.90;;;;;;5070823;28;20192;-88
2023/05/20 12:20:14;;;;;;;0.00;0.00;;;21.50;99.90;;;;;;5068870;28;20182;-88
2023/05/20 12:22:40;;;;;;;0.00;0.00;;;22.00;99.90;;;;;;5068919;28;20471;-91
2023/05/20 12:25:05;;;;;;;0.00;0.00;;;22.30;99.90;;;;;;5062974;28;20459;-91
2023/05/20 12:27:32;;;;;;;0.00;0.00;;;22.20;99.90;;;;;;5055149;28;20197;-90
2023/05/20 12:29:58;;;;;;;0.00;0.00;;;21.80;99.90;;;;;;5067329;28;20178;-88
2023/05/20 12:32:23;;;;;;;0.00;0.00;;;21.80;99.90;;;;;;5068093;28;20502;-89
2023/05/20 12:34:49;;;;;;;0.00;0.00;;;21.20;99.90;;;;;;5052822;28;20665;-87
2023/05/20 12:37:15;;;;;;;0.00;0.00;;;21.50;99.90;;;;;;5068205;28;20197;-88
2023/05/20 12:39:40;;;;;;;0.00;0.00;;;21.20;99.90;;;;;;5068659;28;20181;-87
2023/05/20 12:42:06;;;;;;;0.00;0.00;;;21.20;99.90;;;;;;5066912;28;20193;-87
2023/05/20 12:44:32;;;;;;;0.00;0.00;;;20.80;99.90;;;;;;5062880;28;20218;-91
2023/05/20 12:46:58;;;;;;;0.00;0.00;;;20.50;99.90;;;;;;5066893;28;20217;-90